Malaysia Virtual Airlines Airport Information Service

Heathrow

ICAO: EGLL Country: United Kingdom
Latitude: 51.4711 Longitude: -0.456491
Latest Arrival : MH9265 (EFHK-EGLL) Latest Departure : MC1 (EGLL-WMKK)


WX CaptureLIVE
Data provided by noaa.gov | Fetched at 17:03:50

METAR : EGLL 261650Z AUTO 20007KT 9999 SCT039 24/16 Q1009 NOSIG

TAF : EGLL 261052Z 2612/2718 22005KT 9999 SCT025 PROB30 TEMPO 2612/2616 8000 -SHRA PROB30 TEMPO 2701/2704 BKN010 PROB30 TEMPO 2704/2708 4000 +SHRA TEMPO 2710/2718 7000 SHRA PROB30 TEMPO 2711/2718 3000 +SHRA BKN014 BKN030CB


Runway Data for EGLL
Data provided by openaviationdata.com

Runway ID Mag Var Hdg Length Elevation Surface ILS Freq ILS Id ILS Slope
09L -1 90° 13160 ft 83 ft Asphalt 110.3 IAA 3
09R -1 91° 12396 ft 83 ft Asphalt 109.5 IBB 3
27L -1 271° 12396 ft 83 ft Asphalt 109.5 ILL 3
27R -1 270° 13160 ft 83 ft Asphalt 110.3 IRR 3

Heathrow, United Kingdom
Use only for reference purposes



Not for navigational purposes.